Time,TemperatureF,DewpointF,PressureIn,WindDirection,WindDirectionDegrees,WindSpeedMPH,WindSpeedGustMPH,Humidity,HourlyPrecipIn,Conditions,Clouds,dailyrainin,SoftwareType,DateUTC
2013-03-17 00:00:00,56.1,47.9,28.96,South,191,0.0,0.0,74,0.00,,,0.00,Wunderground v.1.15,2013-03-17 04:00:00,
2013-03-17 00:05:00,56.1,48.3,28.96,SSW,192,0.0,0.0,75,0.00,,,0.00,Wunderground v.1.15,2013-03-17 04:05:00,
2013-03-17 00:09:00,56.2,48.0,28.96,SSW,192,0.0,0.0,75,0.00,,,0.00,weatherlink.com 1.10,2013-03-17 04:09:00,
2013-03-17 00:10:00,56.2,48.4,28.96,SSW,192,0.0,0.0,75,0.00,,,0.00,Wunderground v.1.15,2013-03-17 04:10:00,
2013-03-17 00:15:00,56.2,48.0,28.96,SSW,192,0.0,0.0,74,0.00,,,0.00,Wunderground v.1.15,2013-03-17 04:15:00,
2013-03-17 00:24:00,56.2,48.0,28.96,SSW,192,0.0,0.0,75,0.00,,,0.00,weatherlink.com 1.10,2013-03-17 04:24:00,
2013-03-17 00:30:00,56.2,48.4,28.96,South,191,0.0,0.0,75,0.00,,,0.00,Wunderground v.1.15,2013-03-17 04:30:00,
2013-03-17 00:39:00,56.2,48.0,28.96,WSW,242,1.0,6.0,75,0.00,,,0.00,weatherlink.com 1.10,2013-03-17 04:39:00,
2013-03-17 00:45:00,56.2,48.0,28.96,SSW,195,2.0,3.0,74,0.00,,,0.00,Wunderground v.1.15,2013-03-17 04:45:00,
2013-03-17 00:50:00,56.4,48.2,28.96,SSW,198,2.0,2.0,74,0.00,,,0.00,Wunderground v.1.15,2013-03-17 04:50:00,
2013-03-17 01:00:00,56.7,48.1,28.97,SSW,198,1.0,1.0,73,0.00,,,0.00,Wunderground v.1.15,2013-03-17 05:00:00,
2013-03-17 01:09:00,56.8,48.0,28.96,SSW,198,0.0,2.0,72,0.00,,,0.00,weatherlink.com 1.10,2013-03-17 05:09:00,
2013-03-17 01:15:00,56.7,48.1,28.97,SSW,198,0.0,1.0,73,0.00,,,0.00,Wunderground v.1.15,2013-03-17 05:15:00,
2013-03-17 01:24:00,56.5,48.0,28.96,SSW,198,0.0,2.0,74,0.00,,,0.00,weatherlink.com 1.10,2013-03-17 05:24:00,
2013-03-17 01:30:00,56.3,48.1,28.96,SSW,198,0.0,0.0,74,0.00,,,0.00,Wunderground v.1.15,2013-03-17 05:30:00,
2013-03-17 01:35:00,56.1,47.9,28.96,SSW,198,1.0,1.0,74,0.00,,,0.00,Wunderground v.1.15,2013-03-17 05:35:00,
2013-03-17 01:40:00,56.0,48.2,28.96,SSW,198,1.0,1.0,75,0.00,,,0.00,Wunderground v.1.15,2013-03-17 05:40:00,
2013-03-17 01:50:00,55.7,47.9,28.96,SSW,203,1.0,2.0,75,0.00,,,0.00,Wunderground v.1.15,2013-03-17 05:50:00,
2013-03-17 01:55:00,55.7,47.9,28.96,SSW,203,1.0,2.0,75,0.00,,,0.00,Wunderground v.1.15,2013-03-17 05:55:00,
2013-03-17 02:00:00,55.5,47.7,28.96,SSW,203,1.0,2.0,75,0.00,,,0.00,Wunderground v.1.15,2013-03-17 06:00:00,
2013-03-17 02:09:00,55.3,48.0,28.95,SSW,198,1.0,3.0,75,0.00,,,0.00,weatherlink.com 1.10,2013-03-17 06:09:00,
2013-03-17 02:15:00,55.2,47.4,28.95,SSE,161,1.0,1.0,75,0.00,,,0.00,Wunderground v.1.15,2013-03-17 06:15:00,
2013-03-17 02:20:00,55.2,47.4,28.95,SSE,160,2.0,2.0,75,0.00,,,0.00,Wunderground v.1.15,2013-03-17 06:20:00,
2013-03-17 02:25:00,55.2,47.4,28.95,SSE,161,2.0,2.0,75,0.00,,,0.00,Wunderground v.1.15,2013-03-17 06:25:00,
2013-03-17 02:35:00,55.2,47.4,28.95,SSE,159,2.0,2.0,75,0.00,,,0.00,Wunderground v.1.15,2013-03-17 06:35:00,
2013-03-17 02:40:00,55.0,47.6,28.95,SSE,160,1.0,2.0,76,0.00,,,0.00,Wunderground v.1.15,2013-03-17 06:40:00,
2013-03-17 02:45:00,55.0,47.2,28.95,SSE,160,1.0,2.0,75,0.00,,,0.00,Wunderground v.1.15,2013-03-17 06:45:00,
2013-03-17 02:50:00,55.1,47.3,28.95,SSE,160,2.0,2.0,75,0.00,,,0.00,Wunderground v.1.15,2013-03-17 06:50:00,
2013-03-17 02:55:00,55.5,47.3,28.95,SSE,161,2.0,3.0,74,0.00,,,0.00,Wunderground v.1.15,2013-03-17 06:55:00,
2013-03-17 03:00:00,56.1,47.6,28.95,South,186,2.0,2.0,73,0.00,,,0.00,Wunderground v.1.15,2013-03-17 07:00:00,
2013-03-17 03:10:00,57.3,47.6,28.96,SSW,209,3.0,3.0,70,0.00,,,0.00,Wunderground v.1.15,2013-03-17 07:10:00,
2013-03-17 03:15:00,57.6,47.5,28.95,South,187,3.0,3.0,69,0.00,,,0.00,Wunderground v.1.15,2013-03-17 07:15:00,
2013-03-17 03:20:00,57.7,47.6,28.95,South,180,3.0,3.0,69,0.00,,,0.00,Wunderground v.1.15,2013-03-17 07:20:00,
2013-03-17 03:25:00,57.7,47.2,28.96,SSW,192,2.0,3.0,68,0.00,,,0.00,Wunderground v.1.15,2013-03-17 07:25:00,
2013-03-17 03:30:00,57.7,47.2,28.95,SSE,164,2.0,2.0,68,0.00,,,0.00,Wunderground v.1.15,2013-03-17 07:30:00,
2013-03-17 03:40:00,57.4,47.3,28.95,South,171,1.0,4.0,69,0.00,,,0.00,Wunderground v.1.15,2013-03-17 07:40:00,
2013-03-17 03:45:00,57.0,47.3,28.95,SSW,192,1.0,4.0,70,0.00,,,0.00,Wunderground v.1.15,2013-03-17 07:45:00,
2013-03-17 03:50:00,56.6,46.9,28.95,SSW,192,1.0,1.0,70,0.00,,,0.00,Wunderground v.1.15,2013-03-17 07:50:00,
2013-03-17 03:55:00,56.2,46.9,28.95,SSW,192,1.0,4.0,71,0.00,,,0.00,Wunderground v.1.15,2013-03-17 07:55:00,
2013-03-17 04:00:00,55.7,46.8,28.95,SSW,192,0.0,0.0,72,0.00,,,0.00,Wunderground v.1.15,2013-03-17 08:00:00,
2013-03-17 04:10:00,54.8,46.7,28.95,SSW,192,0.0,0.0,74,0.00,,,0.00,Wunderground v.1.15,2013-03-17 08:10:00,
2013-03-17 04:15:00,54.4,46.6,28.95,SSW,192,0.0,0.0,75,0.00,,,0.00,Wunderground v.1.15,2013-03-17 08:15:00,
2013-03-17 04:20:00,53.9,46.5,28.95,SSW,192,0.0,0.0,76,0.00,,,0.00,Wunderground v.1.15,2013-03-17 08:20:00,
2013-03-17 04:25:00,53.3,46.3,28.95,SSW,196,1.0,2.0,77,0.00,,,0.00,Wunderground v.1.15,2013-03-17 08:25:00,
2013-03-17 04:30:00,53.0,46.0,28.94,SSE,167,1.0,3.0,77,0.00,,,0.00,Wunderground v.1.15,2013-03-17 08:30:00,
2013-03-17 04:35:00,53.3,46.3,28.95,South,186,2.0,7.0,77,0.00,,,0.00,Wunderground v.1.15,2013-03-17 08:35:00,
2013-03-17 04:41:00,54.3,47.0,28.95,South,177,3.0,6.0,75,0.00,,,0.00,weatherlink.com 1.10,2013-03-17 08:41:00,
2013-03-17 04:50:00,55.4,46.9,28.95,South,179,3.0,3.0,73,0.00,,,0.00,Wunderground v.1.15,2013-03-17 08:50:00,
2013-03-17 04:55:00,56.1,46.8,28.95,South,188,3.0,7.0,71,0.00,,,0.00,Wunderground v.1.15,2013-03-17 08:55:00,
2013-03-17 05:00:00,56.5,46.8,28.95,South,182,2.0,2.0,70,0.00,,,0.00,Wunderground v.1.15,2013-03-17 09:00:00,
2013-03-17 05:10:00,56.6,46.5,28.95,South,174,3.0,3.0,69,0.00,,,0.00,Wunderground v.1.15,2013-03-17 09:10:00,
2013-03-17 05:15:00,56.8,46.7,28.95,South,180,3.0,3.0,69,0.00,,,0.00,Wunderground v.1.15,2013-03-17 09:15:00,
2013-03-17 05:25:00,56.6,46.5,28.95,South,184,2.0,2.0,69,0.00,,,0.00,Wunderground v.1.15,2013-03-17 09:25:00,
2013-03-17 05:35:00,56.2,46.5,28.95,SSW,197,2.0,4.0,70,0.00,,,0.00,Wunderground v.1.15,2013-03-17 09:35:00,
2013-03-17 05:45:00,55.7,46.4,28.96,South,180,1.0,4.0,71,0.00,,,0.00,Wunderground v.1.15,2013-03-17 09:45:00,
2013-03-17 05:50:00,55.6,46.3,28.96,South,183,2.0,2.0,71,0.00,,,0.00,Wunderground v.1.15,2013-03-17 09:50:00,
2013-03-17 06:00:00,55.3,46.4,28.97,SSW,211,2.0,3.0,72,0.00,,,0.00,Wunderground v.1.15,2013-03-17 10:00:00,
2013-03-17 06:10:00,55.2,46.3,28.97,South,184,2.0,3.0,72,0.00,,,0.00,Wunderground v.1.15,2013-03-17 10:10:00,
2013-03-17 06:15:00,55.1,46.2,28.97,South,172,2.0,3.0,72,0.00,,,0.00,Wunderground v.1.15,2013-03-17 10:15:00,
2013-03-17 06:25:00,54.8,45.9,28.97,South,173,1.0,2.0,72,0.00,,,0.00,Wunderground v.1.15,2013-03-17 10:25:00,
2013-03-17 06:35:00,54.6,46.1,28.97,SSE,168,2.0,7.0,73,0.00,,,0.00,Wunderground v.1.15,2013-03-17 10:35:00,
2013-03-17 06:40:00,54.5,46.4,28.97,SSE,168,2.0,2.0,74,0.00,,,0.00,Wunderground v.1.15,2013-03-17 10:40:00,
2013-03-17 06:45:00,54.4,46.3,28.98,SSW,198,2.0,7.0,74,0.00,,,0.00,Wunderground v.1.15,2013-03-17 10:45:00,
2013-03-17 06:55:00,54.3,46.2,28.98,SSW,198,1.0,7.0,74,0.00,,,0.00,Wunderground v.1.15,2013-03-17 10:55:00,
2013-03-17 07:00:00,54.2,46.4,28.98,SSW,201,1.0,2.0,75,0.00,,,0.00,Wunderground v.1.15,2013-03-17 11:00:00,
2013-03-17 07:10:00,54.0,46.3,28.98,South,178,2.0,2.0,75,0.00,,,0.00,Wunderground v.1.15,2013-03-17 11:10:00,
2013-03-17 07:15:00,54.1,46.3,28.98,South,179,3.0,3.0,75,0.00,,,0.00,Wunderground v.1.15,2013-03-17 11:15:00,
2013-03-17 07:20:00,54.1,46.7,28.98,South,184,3.0,3.0,76,0.00,,,0.00,Wunderground v.1.15,2013-03-17 11:20:00,
2013-03-17 07:30:00,54.1,46.7,28.99,SSW,203,2.0,2.0,76,0.00,,,0.00,Wunderground v.1.15,2013-03-17 11:30:00,
2013-03-17 07:35:00,54.1,46.7,28.99,South,185,2.0,5.0,76,0.00,,,0.00,Wunderground v.1.15,2013-03-17 11:35:00,
2013-03-17 07:40:00,54.0,47.0,28.99,SSW,209,2.0,5.0,77,0.00,,,0.00,Wunderground v.1.15,2013-03-17 11:40:00,
2013-03-17 07:45:00,54.0,47.0,28.99,South,175,2.0,5.0,77,0.00,,,0.00,Wunderground v.1.15,2013-03-17 11:45:00,
2013-03-17 07:50:00,54.0,47.0,28.99,South,179,2.0,5.0,77,0.00,,,0.00,Wunderground v.1.15,2013-03-17 11:50:00,
2013-03-17 07:56:00,53.9,47.0,28.99,South,188,2.0,5.0,77,0.00,,,0.00,weatherlink.com 1.10,2013-03-17 11:56:00,
2013-03-17 08:05:00,54.0,47.3,29.00,South,169,3.0,3.0,78,0.00,,,0.00,Wunderground v.1.15,2013-03-17 12:05:00,
2013-03-17 08:10:00,54.1,47.7,29.00,SSW,201,3.0,3.0,79,0.00,,,0.00,Wunderground v.1.15,2013-03-17 12:10:00,
2013-03-17 08:15:00,54.1,47.7,29.00,SSE,165,2.0,3.0,79,0.00,,,0.00,Wunderground v.1.15,2013-03-17 12:15:00,
2013-03-17 08:20:00,54.2,47.8,29.00,South,184,2.0,2.0,79,0.00,,,0.00,Wunderground v.1.15,2013-03-17 12:20:00,
2013-03-17 08:25:00,54.1,47.7,29.00,SSW,194,1.0,2.0,79,0.00,,,0.00,Wunderground v.1.15,2013-03-17 12:25:00,
2013-03-17 08:35:00,54.1,48.1,29.00,South,172,1.0,6.0,80,0.00,,,0.00,Wunderground v.1.15,2013-03-17 12:35:00,
2013-03-17 08:40:00,54.2,48.2,29.00,SSW,192,1.0,6.0,80,0.00,,,0.00,Wunderground v.1.15,2013-03-17 12:40:00,
2013-03-17 08:45:00,54.4,48.7,29.00,SW,214,1.0,6.0,81,0.00,,,0.00,Wunderground v.1.15,2013-03-17 12:45:00,
2013-03-17 08:50:00,54.7,48.6,29.00,SSW,211,2.0,6.0,80,0.00,,,0.00,Wunderground v.1.15,2013-03-17 12:50:00,
2013-03-17 08:55:00,55.0,48.6,29.00,South,191,3.0,6.0,79,0.00,,,0.00,Wunderground v.1.15,2013-03-17 12:55:00,
2013-03-17 09:00:00,55.3,49.2,29.00,SSW,204,2.0,2.0,80,0.00,,,0.00,Wunderground v.1.15,2013-03-17 13:00:00,
2013-03-17 09:10:00,55.8,49.4,29.01,South,190,2.0,2.0,79,0.00,,,0.00,Wunderground v.1.15,2013-03-17 13:10:00,
2013-03-17 09:15:00,56.2,49.8,29.00,South,173,2.0,2.0,79,0.00,,,0.00,Wunderground v.1.15,2013-03-17 13:15:00,
2013-03-17 09:20:00,56.7,49.9,29.00,SSE,158,2.0,2.0,78,0.00,,,0.00,Wunderground v.1.15,2013-03-17 13:20:00,
2013-03-17 09:25:00,57.2,50.4,29.01,SSW,194,3.0,3.0,78,0.00,,,0.00,Wunderground v.1.15,2013-03-17 13:25:00,
2013-03-17 09:30:00,57.8,50.6,29.01,SSE,165,3.0,3.0,77,0.00,,,0.00,Wunderground v.1.15,2013-03-17 13:30:00,
2013-03-17 09:40:00,58.7,51.5,29.01,South,170,3.0,7.0,77,0.00,,,0.00,Wunderground v.1.15,2013-03-17 13:40:00,
2013-03-17 09:45:00,59.1,51.9,29.01,South,175,3.0,7.0,77,0.00,,,0.00,Wunderground v.1.15,2013-03-17 13:45:00,
2013-03-17 09:50:00,59.4,51.8,29.01,SSW,194,3.0,7.0,76,0.00,,,0.00,Wunderground v.1.15,2013-03-17 13:50:00,
2013-03-17 09:55:00,59.6,51.7,29.01,SSW,200,4.0,7.0,75,0.00,,,0.00,Wunderground v.1.15,2013-03-17 13:55:00,
2013-03-17 10:00:00,60.0,52.1,29.01,South,171,3.0,3.0,75,0.00,,,0.00,Wunderground v.1.15,2013-03-17 14:00:00,
2013-03-17 10:10:00,60.4,52.4,29.01,South,184,3.0,3.0,75,0.00,,,0.00,Wunderground v.1.15,2013-03-17 14:10:00,
2013-03-17 10:20:00,60.9,52.6,29.01,SSE,161,3.0,3.0,74,0.00,,,0.00,Wunderground v.1.15,2013-03-17 14:20:00,
2013-03-17 10:25:00,61.3,52.6,29.01,SSW,196,3.0,4.0,73,0.00,,,0.00,Wunderground v.1.15,2013-03-17 14:25:00,
2013-03-17 10:30:00,61.7,53.3,29.01,SSE,167,3.0,4.0,74,0.00,,,0.00,Wunderground v.1.15,2013-03-17 14:30:00,
2013-03-17 10:35:00,61.9,52.8,29.01,South,182,3.0,6.0,72,0.00,,,0.00,Wunderground v.1.15,2013-03-17 14:35:00,
2013-03-17 10:41:00,62.2,53.0,29.01,SSE,153,2.0,5.0,73,0.00,,,0.00,weatherlink.com 1.10,2013-03-17 14:41:00,
2013-03-17 10:50:00,63.2,54.4,29.01,SSE,153,3.0,6.0,73,0.00,,,0.00,Wunderground v.1.15,2013-03-17 14:50:00,
2013-03-17 10:55:00,63.7,54.1,29.01,SSE,151,3.0,6.0,71,0.00,,,0.00,Wunderground v.1.15,2013-03-17 14:55:00,
2013-03-17 11:00:00,64.3,53.9,29.01,SE,146,3.0,6.0,69,0.00,,,0.00,Wunderground v.1.15,2013-03-17 15:00:00,
2013-03-17 11:10:00,65.3,54.9,29.01,East,90,3.0,3.0,69,0.00,,,0.00,Wunderground v.1.15,2013-03-17 15:10:00,
2013-03-17 11:15:00,65.6,53.9,29.01,South,171,3.0,3.0,66,0.00,,,0.00,Wunderground v.1.15,2013-03-17 15:15:00,
2013-03-17 11:20:00,65.6,54.3,29.01,SSW,202,3.0,4.0,67,0.00,,,0.00,Wunderground v.1.15,2013-03-17 15:20:00,
2013-03-17 11:26:00,65.5,55.0,29.01,West,259,1.0,5.0,69,0.00,,,0.00,weatherlink.com 1.10,2013-03-17 15:26:00,
2013-03-17 11:35:00,65.9,54.2,29.01,SSW,204,3.0,5.0,66,0.00,,,0.00,Wunderground v.1.15,2013-03-17 15:35:00,
2013-03-17 11:41:00,66.2,54.0,29.00,South,174,2.0,6.0,64,0.00,,,0.00,weatherlink.com 1.10,2013-03-17 15:41:00,
2013-03-17 11:50:00,66.8,53.8,29.00,West,269,4.0,6.0,63,0.00,,,0.00,Wunderground v.1.15,2013-03-17 15:50:00,
2013-03-17 11:57:00,67.2,54.0,29.00,NW,311,8.0,10.0,62,0.00,,,0.00,weatherlink.com 1.10,2013-03-17 15:57:00,
2013-03-17 12:05:00,66.8,53.8,29.00,SE,146,4.0,4.0,63,0.00,,,0.00,Wunderground v.1.15,2013-03-17 16:05:00,
2013-03-17 12:10:00,66.9,53.9,29.00,SW,236,2.0,2.0,63,0.00,,,0.00,Wunderground v.1.15,2013-03-17 16:10:00,
2013-03-17 12:20:00,67.6,54.1,28.99,WSW,250,3.0,3.0,62,0.00,,,0.00,Wunderground v.1.15,2013-03-17 16:20:00,
2013-03-17 12:25:00,67.8,54.3,29.00,SSW,209,3.0,3.0,62,0.00,,,0.00,Wunderground v.1.15,2013-03-17 16:25:00,
2013-03-17 12:30:00,68.0,54.9,29.00,SSE,147,3.0,3.0,63,0.00,,,0.00,Wunderground v.1.15,2013-03-17 16:30:00,
2013-03-17 12:35:00,68.6,55.1,28.99,South,186,4.0,4.0,62,0.00,,,0.00,Wunderground v.1.15,2013-03-17 16:35:00,
2013-03-17 12:40:00,69.3,54.8,28.99,SW,225,3.0,8.0,60,0.00,,,0.00,Wunderground v.1.15,2013-03-17 16:40:00,
2013-03-17 12:45:00,69.5,55.5,28.99,South,184,3.0,8.0,61,0.00,,,0.00,Wunderground v.1.15,2013-03-17 16:45:00,
2013-03-17 12:55:00,69.1,54.2,28.98,WNW,295,3.0,8.0,59,0.00,,,0.00,Wunderground v.1.15,2013-03-17 16:55:00,
2013-03-17 13:00:00,68.9,55.3,28.98,NW,317,3.0,4.0,62,0.00,,,0.00,Wunderground v.1.15,2013-03-17 17:00:00,
2013-03-17 13:10:00,69.2,55.2,28.98,SSE,167,3.0,3.0,61,0.00,,,0.00,Wunderground v.1.15,2013-03-17 17:10:00,
2013-03-17 13:15:00,69.3,55.3,28.97,South,170,2.0,3.0,61,0.00,,,0.00,Wunderground v.1.15,2013-03-17 17:15:00,
2013-03-17 13:25:00,70.2,55.2,28.97,SE,133,3.0,4.0,59,0.00,,,0.00,Wunderground v.1.15,2013-03-17 17:25:00,
2013-03-17 13:30:00,70.1,54.6,28.96,South,178,3.0,3.0,58,0.00,,,0.00,Wunderground v.1.15,2013-03-17 17:30:00,
2013-03-17 13:35:00,70.1,55.6,28.96,South,169,4.0,4.0,60,0.00,,,0.00,Wunderground v.1.15,2013-03-17 17:35:00,
2013-03-17 13:40:00,70.0,54.1,28.96,SSW,207,4.0,4.0,57,0.00,,,0.00,Wunderground v.1.15,2013-03-17 17:40:00,
2013-03-17 13:45:00,69.7,53.8,28.96,South,173,4.0,9.0,57,0.00,,,0.00,Wunderground v.1.15,2013-03-17 17:45:00,
2013-03-17 13:50:00,69.9,54.0,28.95,SW,234,4.0,4.0,57,0.00,,,0.00,Wunderground v.1.15,2013-03-17 17:50:00,
2013-03-17 13:57:00,71.1,53.0,28.95,SE,139,4.0,10.0,54,0.00,,,0.00,weatherlink.com 1.10,2013-03-17 17:57:00,
2013-03-17 14:05:00,70.7,53.7,28.94,SSE,168,4.0,5.0,55,0.00,,,0.00,Wunderground v.1.15,2013-03-17 18:05:00,
2013-03-17 14:10:00,71.1,52.6,28.94,SSE,160,4.0,4.0,52,0.00,,,0.00,Wunderground v.1.15,2013-03-17 18:10:00,
2013-03-17 14:15:00,71.2,52.7,28.94,SW,232,5.0,8.0,52,0.00,,,0.00,Wunderground v.1.15,2013-03-17 18:15:00,
2013-03-17 14:20:00,71.3,52.8,28.94,WNW,300,5.0,11.0,52,0.00,,,0.00,Wunderground v.1.15,2013-03-17 18:20:00,
2013-03-17 14:27:00,71.7,52.0,28.94,SW,225,9.0,18.0,51,0.00,,,0.00,weatherlink.com 1.10,2013-03-17 18:27:00,
2013-03-17 14:35:00,71.5,52.4,28.94,WSW,241,6.0,9.0,51,0.00,,,0.00,Wunderground v.1.15,2013-03-17 18:35:00,
2013-03-17 14:40:00,71.7,53.7,28.93,South,176,6.0,6.0,53,0.00,,,0.00,Wunderground v.1.15,2013-03-17 18:40:00,
2013-03-17 14:45:00,72.0,51.2,28.94,SSE,148,5.0,9.0,48,0.00,,,0.00,Wunderground v.1.15,2013-03-17 18:45:00,
2013-03-17 14:50:00,71.5,51.9,28.93,West,279,4.0,9.0,50,0.00,,,0.00,Wunderground v.1.15,2013-03-17 18:50:00,
2013-03-17 14:55:00,71.1,51.0,28.93,SE,146,5.0,9.0,49,0.00,,,0.00,Wunderground v.1.15,2013-03-17 18:55:00,
2013-03-17 15:00:00,70.9,50.2,28.93,SSE,159,6.0,6.0,48,0.00,,,0.00,Wunderground v.1.15,2013-03-17 19:00:00,
2013-03-17 15:10:00,71.5,51.3,28.93,SW,221,6.0,6.0,49,0.00,,,0.00,Wunderground v.1.15,2013-03-17 19:10:00,
2013-03-17 15:15:00,71.1,52.0,28.93,South,190,6.0,6.0,51,0.00,,,0.00,Wunderground v.1.15,2013-03-17 19:15:00,
2013-03-17 15:25:00,71.2,50.5,28.92,SSW,208,5.0,6.0,48,0.00,,,0.00,Wunderground v.1.15,2013-03-17 19:25:00,
2013-03-17 15:35:00,71.2,48.8,28.92,SSW,202,7.0,7.0,45,0.00,,,0.00,Wunderground v.1.15,2013-03-17 19:35:00,
2013-03-17 15:42:00,71.0,49.0,28.92,South,189,12.0,12.0,45,0.00,,,0.00,weatherlink.com 1.10,2013-03-17 19:42:00,
2013-03-17 15:50:00,70.9,47.9,28.93,SSW,213,6.0,6.0,44,0.00,,,0.00,Wunderground v.1.15,2013-03-17 19:50:00,
2013-03-17 15:55:00,70.7,48.9,28.92,SSW,210,5.0,18.0,46,0.00,,,0.00,Wunderground v.1.15,2013-03-17 19:55:00,
2013-03-17 16:00:00,70.7,48.9,28.92,SW,233,4.0,4.0,46,0.00,,,0.00,Wunderground v.1.15,2013-03-17 20:00:00,
2013-03-17 16:10:00,71.0,49.7,28.92,SSE,159,4.0,6.0,47,0.00,,,0.00,Wunderground v.1.15,2013-03-17 20:10:00,
2013-03-17 16:15:00,70.8,48.4,28.92,South,171,5.0,6.0,45,0.00,,,0.00,Wunderground v.1.15,2013-03-17 20:15:00,
2013-03-17 16:20:00,70.7,48.3,28.91,South,178,6.0,6.0,45,0.00,,,0.00,Wunderground v.1.15,2013-03-17 20:20:00,
2013-03-17 16:25:00,70.6,47.6,28.91,SSE,163,5.0,6.0,44,0.00,,,0.00,Wunderground v.1.15,2013-03-17 20:25:00,
2013-03-17 16:30:00,70.5,47.5,28.91,South,178,5.0,5.0,44,0.00,,,0.00,Wunderground v.1.15,2013-03-17 20:30:00,
2013-03-17 16:40:00,70.4,50.3,28.91,SW,220,5.0,5.0,49,0.00,,,0.00,Wunderground v.1.15,2013-03-17 20:40:00,
2013-03-17 16:45:00,70.4,51.4,28.91,South,170,6.0,6.0,51,0.00,,,0.00,Wunderground v.1.15,2013-03-17 20:45:00,
2013-03-17 16:50:00,70.1,52.7,28.91,South,190,6.0,6.0,54,0.00,,,0.00,Wunderground v.1.15,2013-03-17 20:50:00,
2013-03-17 16:55:00,69.5,53.6,28.91,SSE,155,5.0,14.0,57,0.00,,,0.00,Wunderground v.1.15,2013-03-17 20:55:00,
2013-03-17 17:00:00,69.0,53.6,28.91,South,174,4.0,4.0,58,0.00,,,0.00,Wunderground v.1.15,2013-03-17 21:00:00,
2013-03-17 17:10:00,69.0,53.1,28.91,SW,217,5.0,5.0,57,0.00,,,0.00,Wunderground v.1.15,2013-03-17 21:10:00,
2013-03-17 17:25:00,68.9,53.0,28.91,SSE,165,5.0,5.0,57,0.00,,,0.00,Wunderground v.1.15,2013-03-17 21:25:00,
2013-03-17 17:35:00,68.9,53.0,28.91,South,184,5.0,11.0,57,0.00,,,0.00,Wunderground v.1.15,2013-03-17 21:35:00,
2013-03-17 17:40:00,68.7,52.4,28.91,South,184,4.0,11.0,56,0.00,,,0.00,Wunderground v.1.15,2013-03-17 21:40:00,
2013-03-17 17:45:00,68.6,52.3,28.91,SSE,166,5.0,11.0,56,0.00,,,0.00,Wunderground v.1.15,2013-03-17 21:45:00,
2013-03-17 17:50:00,68.3,52.0,28.91,SSE,163,5.0,11.0,56,0.00,,,0.00,Wunderground v.1.15,2013-03-17 21:50:00,
2013-03-17 17:58:00,68.0,52.0,28.91,South,171,2.0,9.0,57,0.00,,,0.00,weatherlink.com 1.10,2013-03-17 21:58:00,
2013-03-17 18:05:00,68.1,52.8,28.91,South,171,4.0,4.0,58,0.00,,,0.00,Wunderground v.1.15,2013-03-17 22:05:00,
2013-03-17 18:10:00,68.1,52.3,28.91,South,188,5.0,5.0,57,0.00,,,0.00,Wunderground v.1.15,2013-03-17 22:10:00,
2013-03-17 18:15:00,67.9,52.6,28.91,South,178,4.0,5.0,58,0.00,,,0.00,Wunderground v.1.15,2013-03-17 22:15:00,
2013-03-17 18:20:00,67.7,52.4,28.90,South,180,4.0,4.0,58,0.00,,,0.00,Wunderground v.1.15,2013-03-17 22:20:00,
2013-03-17 18:28:00,67.3,52.0,28.90,SSE,161,3.0,8.0,58,0.00,,,0.00,weatherlink.com 1.10,2013-03-17 22:28:00,
2013-03-17 18:35:00,67.0,51.7,28.91,SSE,165,4.0,11.0,58,0.00,,,0.00,Wunderground v.1.15,2013-03-17 22:35:00,
2013-03-17 18:40:00,66.8,51.5,28.91,South,178,3.0,11.0,58,0.00,,,0.00,Wunderground v.1.15,2013-03-17 22:40:00,
2013-03-17 18:45:00,66.7,51.5,28.91,SE,144,3.0,11.0,58,0.00,,,0.00,Wunderground v.1.15,2013-03-17 22:45:00,
2013-03-17 18:50:00,66.5,51.7,28.91,South,188,4.0,11.0,59,0.00,,,0.00,Wunderground v.1.15,2013-03-17 22:50:00,
2013-03-17 18:55:00,66.3,51.5,28.91,SSW,205,4.0,11.0,59,0.00,,,0.00,Wunderground v.1.15,2013-03-17 22:55:00,
2013-03-17 19:00:00,66.2,51.4,28.91,South,188,3.0,3.0,59,0.00,,,0.00,Wunderground v.1.15,2013-03-17 23:00:00,
2013-03-17 19:10:00,65.9,50.7,28.91,SSE,161,4.0,5.0,58,0.00,,,0.00,Wunderground v.1.15,2013-03-17 23:10:00,
2013-03-17 19:15:00,65.8,50.6,28.91,South,171,5.0,5.0,58,0.00,,,0.00,Wunderground v.1.15,2013-03-17 23:15:00,
2013-03-17 19:20:00,65.7,51.0,28.92,South,175,5.0,5.0,59,0.00,,,0.00,Wunderground v.1.15,2013-03-17 23:20:00,
2013-03-17 19:25:00,65.5,50.8,28.92,SSE,155,4.0,5.0,59,0.00,,,0.00,Wunderground v.1.15,2013-03-17 23:25:00,
2013-03-17 19:30:00,65.3,50.6,28.92,SSE,165,4.0,4.0,59,0.00,,,0.00,Wunderground v.1.15,2013-03-17 23:30:00,
2013-03-17 19:40:00,64.9,50.7,28.92,South,184,3.0,10.0,60,0.00,,,0.00,Wunderground v.1.15,2013-03-17 23:40:00,
2013-03-17 19:45:00,64.8,50.6,28.92,SSE,166,3.0,10.0,60,0.00,,,0.00,Wunderground v.1.15,2013-03-17 23:45:00,
2013-03-17 19:50:00,64.6,50.8,28.92,South,188,3.0,3.0,61,0.00,,,0.00,Wunderground v.1.15,2013-03-17 23:50:00,
2013-03-17 19:55:00,64.4,50.7,28.92,South,170,2.0,10.0,61,0.00,,,0.00,Wunderground v.1.15,2013-03-17 23:55:00,
2013-03-17 20:00:00,64.2,50.5,28.92,South,177,2.0,2.0,61,0.00,,,0.00,Wunderground v.1.15,2013-03-18 00:00:00,
2013-03-17 20:10:00,63.8,50.5,28.92,SSW,196,2.0,2.0,62,0.00,,,0.00,Wunderground v.1.15,2013-03-18 00:10:00,
2013-03-17 20:15:00,63.5,50.7,28.93,SW,215,1.0,2.0,63,0.00,,,0.00,Wunderground v.1.15,2013-03-18 00:15:00,
2013-03-17 20:20:00,63.2,50.8,28.93,South,182,1.0,1.0,64,0.00,,,0.00,Wunderground v.1.15,2013-03-18 00:20:00,
2013-03-17 20:25:00,63.0,50.6,28.93,South,183,1.0,2.0,64,0.00,,,0.00,Wunderground v.1.15,2013-03-18 00:25:00,
2013-03-17 20:30:00,62.7,50.8,28.93,South,183,1.0,1.0,65,0.00,,,0.00,Wunderground v.1.15,2013-03-18 00:30:00,
2013-03-17 20:35:00,62.3,50.4,28.93,South,182,1.0,11.0,65,0.00,,,0.00,Wunderground v.1.15,2013-03-18 00:35:00,
2013-03-17 20:43:00,61.8,50.0,28.93,South,183,0.0,2.0,66,0.00,,,0.00,weatherlink.com 1.10,2013-03-18 00:43:00,
2013-03-17 20:50:00,61.3,50.2,28.93,South,189,1.0,11.0,67,0.00,,,0.00,Wunderground v.1.15,2013-03-18 00:50:00,
2013-03-17 20:55:00,60.9,50.3,28.93,SSW,192,1.0,11.0,68,0.00,,,0.00,Wunderground v.1.15,2013-03-18 00:55:00,
2013-03-17 21:00:00,60.4,50.2,28.93,South,190,1.0,1.0,69,0.00,,,0.00,Wunderground v.1.15,2013-03-18 01:00:00,
2013-03-17 21:10:00,59.7,49.9,28.93,South,190,0.0,0.0,70,0.00,,,0.00,Wunderground v.1.15,2013-03-18 01:10:00,
2013-03-17 21:20:00,59.0,50.0,28.93,South,190,0.0,0.0,72,0.00,,,0.00,Wunderground v.1.15,2013-03-18 01:20:00,
2013-03-17 21:28:00,58.5,50.0,28.93,South,190,0.0,1.0,73,0.00,,,0.00,weatherlink.com 1.10,2013-03-18 01:28:00,
2013-03-17 21:35:00,57.9,49.7,28.93,South,190,0.0,5.0,74,0.00,,,0.00,Wunderground v.1.15,2013-03-18 01:35:00,
2013-03-17 21:43:00,57.3,49.0,28.94,South,190,2.0,2.0,75,0.00,,,0.00,weatherlink.com 1.10,2013-03-18 01:43:00,
2013-03-17 21:50:00,56.7,49.2,28.93,South,190,1.0,5.0,76,0.00,,,0.00,Wunderground v.1.15,2013-03-18 01:50:00,
2013-03-17 21:58:00,56.1,49.0,28.93,South,190,0.0,2.0,77,0.00,,,0.00,weatherlink.com 1.10,2013-03-18 01:58:00,
2013-03-17 22:05:00,55.7,48.9,28.93,South,190,0.0,0.0,78,0.00,,,0.00,Wunderground v.1.15,2013-03-18 02:05:00,
2013-03-17 22:10:00,55.4,48.7,28.94,South,190,0.0,1.0,78,0.00,,,0.00,Wunderground v.1.15,2013-03-18 02:10:00,
2013-03-17 22:15:00,55.0,48.9,28.93,South,190,1.0,1.0,80,0.00,,,0.00,Wunderground v.1.15,2013-03-18 02:15:00,
2013-03-17 22:25:00,54.5,48.8,28.93,South,190,1.0,1.0,81,0.00,,,0.00,Wunderground v.1.15,2013-03-18 02:25:00,
2013-03-17 22:30:00,54.2,48.5,28.94,South,190,0.0,0.0,81,0.00,,,0.00,Wunderground v.1.15,2013-03-18 02:30:00,
2013-03-17 22:35:00,54.0,48.3,28.94,South,190,0.0,2.0,81,0.00,,,0.00,Wunderground v.1.15,2013-03-18 02:35:00,
2013-03-17 22:40:00,53.8,48.1,28.94,South,190,0.0,2.0,81,0.00,,,0.00,Wunderground v.1.15,2013-03-18 02:40:00,
2013-03-17 22:45:00,53.5,48.1,28.94,South,191,0.0,2.0,82,0.00,,,0.00,Wunderground v.1.15,2013-03-18 02:45:00,
2013-03-17 22:50:00,53.3,47.9,28.94,South,190,0.0,2.0,82,0.00,,,0.00,Wunderground v.1.15,2013-03-18 02:50:00,
2013-03-17 22:55:00,53.1,47.7,28.94,South,190,0.0,2.0,82,0.00,,,0.00,Wunderground v.1.15,2013-03-18 02:55:00,
2013-03-17 23:00:00,53.0,48.0,28.94,South,189,0.0,0.0,83,0.00,,,0.00,Wunderground v.1.15,2013-03-18 03:00:00,
2013-03-17 23:10:00,52.8,47.8,28.94,SW,229,0.0,0.0,83,0.00,,,0.00,Wunderground v.1.15,2013-03-18 03:10:00,
2013-03-17 23:15:00,52.7,47.7,28.94,SW,223,1.0,1.0,83,0.00,,,0.00,Wunderground v.1.15,2013-03-18 03:15:00,
2013-03-17 23:20:00,52.8,48.1,28.95,SW,223,0.0,1.0,84,0.00,,,0.00,Wunderground v.1.15,2013-03-18 03:20:00,
2013-03-17 23:29:00,52.8,48.0,28.95,SW,220,1.0,3.0,83,0.00,,,0.00,weatherlink.com 1.10,2013-03-18 03:29:00,
2013-03-17 23:35:00,53.0,48.3,28.95,South,170,2.0,2.0,84,0.00,,,0.00,Wunderground v.1.15,2013-03-18 03:35:00,
2013-03-17 23:40:00,53.5,48.8,28.95,South,170,2.0,2.0,84,0.00,,,0.00,Wunderground v.1.15,2013-03-18 03:40:00,
2013-03-17 23:49:00,54.9,49.5,28.95,South,188,2.0,2.0,82,0.00,,,0.00,Wunderground v.1.15,2013-03-18 03:49:00,
2013-03-17 23:54:00,55.7,49.6,28.95,South,169,2.0,2.0,80,0.00,,,0.00,Wunderground v.1.15,2013-03-18 03:54:00,